Time;durP1;ratioP1;P1;durP2;ratioP2;P2;SDS_P1;SDS_P2;PMS_P1;PMS_P2;Temp;Humidity;BMP_temperature;BMP_pressure;BME280_temperature;BME280_humidity;BME280_pressure;Samples;Min_cycle;Max_cycle;Signal;HPM_P1;HPM_P2
2022/08/17 00:00:47;;;;;;;12.70;8.00;;;18.50;43.90;;;;;;5054311;28;20481;-54
2022/08/17 00:03:16;;;;;;;8.73;7.17;;;18.50;44.80;;;;;;5051044;28;20496;-52
2022/08/17 00:05:46;;;;;;;12.70;7.93;;;18.50;45.30;;;;;;5059939;28;20533;-54
2022/08/17 00:08:15;;;;;;;11.30;9.23;;;18.40;50.80;;;;;;5053578;28;20466;-53
2022/08/17 00:10:43;;;;;;;9.60;7.67;;;18.40;48.50;;;;;;5059707;28;20458;-54
2022/08/17 00:13:13;;;;;;;8.63;7.50;;;18.40;46.60;;;;;;5047953;28;20481;-54
2022/08/17 00:15:42;;;;;;;14.07;8.80;;;18.40;41.70;;;;;;5048967;28;20797;-53
2022/08/17 00:18:09;;;;;;;19.50;8.27;;;18.40;39.30;;;;;;5051545;28;20461;-55
2022/08/17 00:20:36;;;;;;;9.77;8.03;;;18.40;40.20;;;;;;5055513;28;20484;-53
2022/08/17 00:23:06;;;;;;;9.77;8.23;;;18.30;39.70;;;;;;5049742;28;20833;-53
2022/08/17 00:25:32;;;;;;;10.37;7.50;;;18.30;39.30;;;;;;5048836;28;20458;-54
2022/08/17 00:27:59;;;;;;;9.33;8.43;;;18.30;36.50;;;;;;5050651;28;20997;-52
2022/08/17 00:30:26;;;;;;;10.43;7.70;;;18.20;36.30;;;;;;5052938;28;20476;-53
2022/08/17 00:32:54;;;;;;;13.67;8.87;;;18.20;35.00;;;;;;5049963;28;20543;-53
2022/08/17 00:35:23;;;;;;;10.40;9.50;;;18.10;31.90;;;;;;5047085;28;20496;-52
2022/08/17 00:37:49;;;;;;;13.73;8.27;;;18.00;37.30;;;;;;5047431;28;20983;-54
2022/08/17 00:40:17;;;;;;;16.87;8.17;;;18.00;25.10;;;;;;5046675;28;20530;-54
2022/08/17 00:42:44;;;;;;;11.37;8.40;;;18.00;99.90;;;;;;5058608;28;20527;-52
2022/08/17 00:45:15;;;;;;;13.03;9.40;;;18.00;99.90;;;;;;5056672;28;20540;-52
2022/08/17 00:47:42;;;;;;;10.50;9.17;;;18.00;99.90;;;;;;5048154;28;20512;-53
2022/08/17 00:50:13;;;;;;;14.03;9.30;;;18.10;99.90;;;;;;5056516;28;20958;-52
2022/08/17 00:52:45;;;;;;;17.83;9.20;;;18.10;99.90;;;;;;5044739;28;20521;-52
2022/08/17 00:55:11;;;;;;;14.50;8.83;;;18.10;99.90;;;;;;5050323;28;20462;-53
2022/08/17 00:57:41;;;;;;;13.70;8.37;;;18.00;85.00;;;;;;5050220;28;20462;-52
2022/08/17 01:00:12;;;;;;;12.53;8.70;;;18.00;99.90;;;;;;5050105;28;20524;-53
2022/08/17 01:02:42;;;;;;;16.53;8.70;;;17.90;99.90;;;;;;5052714;28;20490;-53
2022/08/17 01:05:14;;;;;;;11.67;8.30;;;18.00;99.90;;;;;;5063617;28;20462;-51
2022/08/17 01:07:42;;;;;;;10.20;9.20;;;17.90;99.90;;;;;;5053803;28;20874;-53
2022/08/17 01:10:12;;;;;;;10.47;8.50;;;17.90;99.90;;;;;;5040812;28;20454;-53
2022/08/17 01:12:39;;;;;;;13.00;8.90;;;17.90;99.90;;;;;;5056241;28;20489;-52
2022/08/17 01:15:06;;;;;;;14.20;8.30;;;17.90;99.90;;;;;;5046024;28;21025;-54
2022/08/17 01:17:33;;;;;;;20.67;9.00;;;17.90;99.90;;;;;;5044683;28;20489;-54
2022/08/17 01:20:00;;;;;;;22.50;9.10;;;17.90;99.90;;;;;;5052000;28;20481;-53
2022/08/17 01:22:28;;;;;;;11.53;8.53;;;17.80;99.90;;;;;;5051271;28;20478;-53
2022/08/17 01:24:58;;;;;;;14.83;8.10;;;17.80;99.90;;;;;;5051585;28;21033;-53
2022/08/17 01:27:26;;;;;;;16.07;9.10;;;17.80;99.90;;;;;;5046048;28;20454;-54
2022/08/17 01:29:56;;;;;;;12.93;9.57;;;17.90;99.90;;;;;;5043086;28;20535;-52
2022/08/17 01:32:23;;;;;;;14.70;8.80;;;17.70;99.90;;;;;;5045348;28;20477;-52
2022/08/17 01:34:50;;;;;;;12.97;9.30;;;17.70;99.90;;;;;;5049905;28;20511;-54
2022/08/17 01:37:16;;;;;;;22.03;9.43;;;17.80;99.90;;;;;;5046887;28;20835;-54
2022/08/17 01:39:48;;;;;;;16.63;7.90;;;17.80;99.90;;;;;;5046823;28;20902;-52
2022/08/17 01:42:22;;;;;;;24.83;9.40;;;17.80;99.90;;;;;;5052019;28;20493;-54
2022/08/17 01:44:51;;;;;;;15.50;7.97;;;17.80;99.90;;;;;;5048516;28;20470;-52
2022/08/17 01:47:18;;;;;;;14.23;8.27;;;17.80;99.90;;;;;;5047314;28;20488;-54
2022/08/17 01:49:45;;;;;;;13.80;8.57;;;17.70;99.90;;;;;;5050024;28;20461;-52
2022/08/17 01:52:12;;;;;;;12.43;8.70;;;17.70;99.90;;;;;;5047130;28;22777;-52
2022/08/17 01:54:41;;;;;;;14.20;8.70;;;17.60;99.90;;;;;;5055446;28;20466;-51
2022/08/17 01:57:09;;;;;;;11.50;9.23;;;17.60;99.90;;;;;;5055933;28;20458;-53
2022/08/17 01:59:36;;;;;;;9.60;8.60;;;17.50;99.90;;;;;;5045330;28;20458;-54
2022/08/17 02:02:03;;;;;;;10.93;8.40;;;17.50;99.90;;;;;;5047233;28;20462;-53
2022/08/17 02:04:30;;;;;;;11.00;9.03;;;17.50;99.90;;;;;;5044012;28;20465;-51
2022/08/17 02:06:57;;;;;;;15.03;8.63;;;17.40;99.90;;;;;;5050052;28;20516;-52
2022/08/17 02:09:26;;;;;;;15.17;9.90;;;17.40;99.90;;;;;;5055943;28;20456;-52
2022/08/17 02:11:53;;;;;;;11.43;8.57;;;17.40;99.90;;;;;;5052300;28;20461;-55
2022/08/17 02:14:22;;;;;;;12.67;8.80;;;17.40;99.90;;;;;;5050156;28;20449;-51
2022/08/17 02:16:49;;;;;;;14.00;8.57;;;17.40;99.90;;;;;;5047760;28;20476;-53
2022/08/17 02:19:16;;;;;;;9.97;9.00;;;17.40;99.90;;;;;;5056920;28;20457;-53
2022/08/17 02:21:45;;;;;;;18.13;8.67;;;17.30;99.90;;;;;;5048485;28;20490;-53
2022/08/17 02:24:15;;;;;;;12.00;8.60;;;17.40;99.90;;;;;;5051875;28;20481;-53
2022/08/17 02:26:42;;;;;;;12.50;8.20;;;17.40;99.90;;;;;;5044831;28;20527;-53
2022/08/17 02:29:09;;;;;;;9.87;8.87;;;17.40;99.90;;;;;;5046824;28;20465;-52
2022/08/17 02:31:37;;;;;;;9.80;7.60;;;17.30;99.90;;;;;;5045274;28;20528;-52
2022/08/17 02:34:05;;;;;;;18.47;8.93;;;17.30;99.90;;;;;;5040493;28;20546;-53
2022/08/17 02:36:32;;;;;;;10.57;9.20;;;17.30;99.90;;;;;;5052767;28;20462;-55
2022/08/17 02:38:59;;;;;;;12.13;8.17;;;17.30;99.90;;;;;;5049707;28;20458;-54
2022/08/17 02:41:25;;;;;;;18.50;9.17;;;17.30;99.90;;;;;;5044103;28;21057;-53
2022/08/17 02:43:52;;;;;;;8.93;7.90;;;17.30;99.90;;;;;;5045214;28;20531;-52
2022/08/17 02:46:19;;;;;;;9.53;8.30;;;17.40;99.90;;;;;;5054782;28;20450;-51
2022/08/17 02:48:47;;;;;;;15.67;10.47;;;17.30;99.90;;;;;;5046655;28;20450;-54
2022/08/17 02:51:13;;;;;;;12.93;7.97;;;17.30;99.90;;;;;;5052234;28;20458;-54
2022/08/17 02:53:40;;;;;;;11.80;7.97;;;17.30;99.90;;;;;;5047281;28;20486;-53
2022/08/17 02:56:07;;;;;;;10.90;9.03;;;17.30;99.90;;;;;;5053061;28;20954;-52
2022/08/17 02:58:33;;;;;;;10.17;9.07;;;17.30;99.90;;;;;;5054515;28;20941;-54
2022/08/17 03:01:00;;;;;;;13.97;9.47;;;17.20;99.90;;;;;;5049469;28;20477;-53
2022/08/17 03:03:27;;;;;;;15.33;8.47;;;17.20;99.90;;;;;;5046624;28;20995;-52
2022/08/17 03:05:55;;;;;;;19.20;8.37;;;17.20;99.90;;;;;;5057212;28;20470;-52
2022/08/17 03:08:22;;;;;;;21.93;8.23;;;17.20;99.90;;;;;;5041189;28;20830;-53
2022/08/17 03:10:49;;;;;;;15.17;9.33;;;17.20;99.90;;;;;;5049978;28;20484;-53
2022/08/17 03:13:15;;;;;;;14.67;8.63;;;17.20;99.90;;;;;;5060224;28;20517;-53
2022/08/17 03:15:44;;;;;;;12.17;8.37;;;17.10;99.90;;;;;;5053784;28;20454;-53
2022/08/17 03:18:12;;;;;;;13.70;10.00;;;17.00;99.90;;;;;;5054977;28;20537;-53
2022/08/17 03:20:39;;;;;;;10.73;8.30;;;17.00;99.90;;;;;;5058943;28;20541;-53
2022/08/17 03:23:08;;;;;;;8.83;7.80;;;17.00;99.90;;;;;;5052940;28;20529;-52
2022/08/17 03:25:37;;;;;;;8.90;7.90;;;17.00;99.90;;;;;;5056194;28;20465;-52
2022/08/17 03:28:04;;;;;;;16.43;8.37;;;17.00;99.90;;;;;;5052748;28;20458;-52
2022/08/17 03:30:31;;;;;;;19.03;7.47;;;17.00;99.90;;;;;;5051270;28;20504;-52
2022/08/17 03:33:01;;;;;;;13.20;7.40;;;17.00;99.90;;;;;;5049387;28;20485;-52
2022/08/17 03:35:29;;;;;;;14.20;8.60;;;16.90;99.90;;;;;;5061843;28;20457;-52
2022/08/17 03:37:57;;;;;;;11.70;9.50;;;16.90;99.90;;;;;;5049217;28;20844;-51
2022/08/17 03:40:25;;;;;;;16.50;11.07;;;16.90;99.90;;;;;;5050286;28;20469;-53
2022/08/17 03:42:53;;;;;;;13.80;9.10;;;16.80;99.90;;;;;;5052843;28;20481;-51
2022/08/17 03:56:44;;;;;;;14.23;8.87;;;16.90;99.90;;;;;;5027911;28;20438;-52
2022/08/17 03:59:15;;;;;;;12.93;8.70;;;16.90;99.90;;;;;;5051382;28;20461;-51
2022/08/17 04:01:42;;;;;;;10.47;7.40;;;16.80;99.90;;;;;;5045762;28;20505;-51
2022/08/17 04:04:08;;;;;;;14.67;8.10;;;16.80;99.90;;;;;;5044711;28;20482;-51
2022/08/17 04:06:35;;;;;;;12.17;8.23;;;16.80;99.90;;;;;;5052989;28;20452;-52
2022/08/17 04:09:02;;;;;;;9.83;8.00;;;16.80;99.90;;;;;;5047516;28;20559;-51
2022/08/17 04:11:29;;;;;;;9.83;7.83;;;16.80;99.90;;;;;;5050154;28;20454;-52
2022/08/17 04:13:56;;;;;;;11.00;8.13;;;16.90;99.90;;;;;;5057893;28;20474;-52
2022/08/17 04:16:23;;;;;;;11.90;8.70;;;16.90;99.90;;;;;;5050251;28;20512;-51
2022/08/17 04:18:50;;;;;;;8.63;7.73;;;16.90;99.90;;;;;;5046934;28;20466;-52
2022/08/17 04:21:17;;;;;;;14.53;9.13;;;16.90;99.90;;;;;;5043483;28;20576;-51
2022/08/17 04:23:44;;;;;;;11.73;8.20;;;16.90;99.90;;;;;;5054314;28;20532;-51
2022/08/17 04:26:13;;;;;;;10.33;8.50;;;17.00;99.90;;;;;;5059776;28;20490;-52
2022/08/17 04:28:41;;;;;;;10.47;8.30;;;17.00;99.90;;;;;;5057116;28;20527;-51
2022/08/17 04:31:09;;;;;;;9.80;7.87;;;17.00;99.90;;;;;;5049620;28;20511;-52
2022/08/17 04:33:36;;;;;;;10.13;8.80;;;17.00;99.90;;;;;;5052879;28;20477;-51
2022/08/17 04:36:06;;;;;;;11.23;7.97;;;17.00;99.90;;;;;;5051188;28;22163;-51
2022/08/17 04:38:36;;;;;;;13.03;9.10;;;17.00;99.90;;;;;;5052830;28;20472;-51
2022/08/17 04:43:53;;;;;;;13.37;8.60;;;17.00;99.90;;;;;;5052851;28;20484;-52
2022/08/17 04:46:22;;;;;;;9.43;8.63;;;17.10;99.90;;;;;;5052498;28;20454;-52
2022/08/17 04:48:50;;;;;;;12.70;9.10;;;17.10;99.90;;;;;;5047346;28;20466;-52
2022/08/17 04:51:21;;;;;;;11.23;9.37;;;17.20;99.90;;;;;;5054821;28;20515;-52
2022/08/17 04:53:50;;;;;;;11.67;9.03;;;17.20;99.90;;;;;;5048017;28;20516;-52
2022/08/17 04:56:17;;;;;;;10.83;8.00;;;17.20;99.90;;;;;;5058456;28;20866;-52
2022/08/17 04:58:46;;;;;;;11.57;8.40;;;17.30;99.90;;;;;;5050076;28;20458;-52
2022/08/17 05:01:15;;;;;;;10.10;9.03;;;17.40;99.90;;;;;;5053258;28;20998;-52
2022/08/17 05:03:42;;;;;;;8.90;8.07;;;17.40;99.90;;;;;;5047094;28;20490;-52
2022/08/17 05:06:09;;;;;;;9.70;8.10;;;17.50;99.90;;;;;;5053357;28;20462;-52
2022/08/17 05:08:36;;;;;;;10.10;8.43;;;17.60;99.90;;;;;;5054526;28;20465;-53
2022/08/17 05:11:02;;;;;;;12.70;9.17;;;17.60;99.90;;;;;;5052867;28;20529;-53
2022/08/17 05:13:29;;;;;;;11.10;8.83;;;17.70;99.90;;;;;;5059196;28;20538;-52
2022/08/17 05:16:00;;;;;;;13.07;9.00;;;17.70;99.90;;;;;;5052883;28;20457;-51
2022/08/17 05:18:29;;;;;;;9.83;8.83;;;17.80;99.90;;;;;;5052125;28;20487;-52
2022/08/17 05:20:56;;;;;;;11.10;8.03;;;17.90;99.90;;;;;;5048092;28;20486;-51
2022/08/17 05:23:25;;;;;;;9.13;8.27;;;18.00;99.90;;;;;;5056585;28;20587;-52
2022/08/17 05:25:54;;;;;;;9.33;8.40;;;18.00;99.90;;;;;;5052023;28;20512;-52
2022/08/17 05:28:22;;;;;;;9.33;8.23;;;18.10;99.90;;;;;;5049224;28;20485;-52
2022/08/17 05:30:49;;;;;;;9.70;8.40;;;18.20;99.90;;;;;;5046411;28;20462;-52
2022/08/17 05:33:18;;;;;;;9.77;8.83;;;18.30;99.90;;;;;;5050716;28;20466;-52
2022/08/17 05:35:49;;;;;;;9.40;8.50;;;18.30;99.90;;;;;;5053519;28;20461;-52
2022/08/17 05:38:18;;;;;;;9.47;8.43;;;18.40;99.90;;;;;;5054990;28;20495;-51
2022/08/17 05:40:46;;;;;;;17.37;8.80;;;18.40;99.90;;;;;;5047836;28;20555;-52
2022/08/17 05:43:14;;;;;;;12.00;8.27;;;18.50;99.90;;;;;;5048975;28;20584;-52
2022/08/17 05:45:45;;;;;;;9.80;8.90;;;18.60;99.90;;;;;;5052097;28;20453;-53
2022/08/17 05:48:12;;;;;;;11.93;8.83;;;18.70;99.90;;;;;;5052185;28;20458;-52
2022/08/17 05:50:49;;;;;;;12.17;8.60;;;18.80;99.90;;;;;;5039065;28;20466;-53
2022/08/17 05:53:24;;;;;;;10.57;8.30;;;18.90;99.90;;;;;;5052656;28;20539;-52
2022/08/17 05:56:00;;;;;;;8.33;7.63;;;18.90;99.90;;;;;;5041176;28;20453;-52
2022/08/17 05:58:39;;;;;;;8.40;7.67;;;19.10;99.90;;;;;;5049964;28;20465;-55
2022/08/17 06:01:16;;;;;;;8.80;8.00;;;19.20;99.90;;;;;;5045609;28;20473;-54
2022/08/17 06:03:49;;;;;;;10.50;8.47;;;19.30;99.90;;;;;;5044676;28;20489;-51
2022/08/17 06:06:26;;;;;;;11.47;8.60;;;19.40;99.90;;;;;;5049110;28;20466;-51
2022/08/17 06:09:01;;;;;;;12.23;8.40;;;19.50;99.90;;;;;;5047820;28;20465;-52
2022/08/17 06:11:35;;;;;;;13.43;8.13;;;19.70;99.90;;;;;;5041633;28;20514;-52
2022/08/17 06:14:22;;;;;;;10.73;8.43;;;19.80;78.70;;;;;;5047777;28;20482;-52
2022/08/17 06:16:54;;;;;;;13.63;9.53;;;20.00;27.20;;;;;;5047134;28;20462;-53
2022/08/17 06:19:27;;;;;;;9.60;8.30;;;20.10;30.60;;;;;;5048955;28;20457;-52
2022/08/17 06:21:56;;;;;;;20.20;8.57;;;20.20;33.60;;;;;;5041484;28;20469;-53
2022/08/17 06:24:33;;;;;;;8.83;7.93;;;20.40;40.20;;;;;;5043108;28;20453;-51
2022/08/17 06:27:07;;;;;;;11.07;9.13;;;20.50;50.00;;;;;;5046407;28;20530;-51
2022/08/17 06:29:41;;;;;;;17.37;9.57;;;20.60;54.20;;;;;;5043543;28;20820;-53
2022/08/17 06:32:10;;;;;;;11.10;8.80;;;20.70;61.80;;;;;;5050422;28;20461;-52
2022/08/17 06:34:38;;;;;;;13.90;9.50;;;20.90;59.00;;;;;;5052130;28;20576;-53
2022/08/17 06:37:20;;;;;;;9.87;8.60;;;21.10;58.60;;;;;;5046160;28;20461;-54
2022/08/17 06:39:55;;;;;;;9.73;8.70;;;21.30;70.90;;;;;;5045121;28;20464;-52
2022/08/17 06:42:30;;;;;;;10.53;8.43;;;21.40;78.90;;;;;;5049750;28;20561;-52
2022/08/17 06:45:03;;;;;;;12.00;8.70;;;21.50;87.00;;;;;;5065189;28;20863;-53
2022/08/17 06:47:35;;;;;;;11.50;8.90;;;21.80;90.80;;;;;;5062707;28;20516;-52
2022/08/17 06:50:14;;;;;;;8.83;7.87;;;22.00;93.40;;;;;;5068186;28;20530;-53
2022/08/17 06:52:51;;;;;;;8.53;7.23;;;22.10;99.90;;;;;;5053758;28;20483;-51
2022/08/17 06:55:25;;;;;;;16.30;8.93;;;22.30;99.90;;;;;;5050611;28;20457;-51
2022/08/17 06:57:55;;;;;;;16.70;7.00;;;22.60;99.90;;;;;;5054601;28;20456;-50
2022/08/17 07:00:26;;;;;;;11.00;7.77;;;22.80;99.90;;;;;;5057059;28;20530;-53
2022/08/17 07:02:58;;;;;;;10.07;7.13;;;23.00;99.90;;;;;;5056301;28;20485;-52
2022/08/17 07:05:32;;;;;;;13.80;7.10;;;23.20;99.90;;;;;;5050096;28;20453;-52
2022/08/17 07:08:10;;;;;;;10.00;6.70;;;23.30;99.90;;;;;;5045230;28;21004;-52
2022/08/17 07:10:42;;;;;;;7.17;6.47;;;23.40;99.90;;;;;;5049140;28;20549;-52
2022/08/17 07:13:29;;;;;;;11.37;6.40;;;23.50;25.80;;;;;;5059793;28;20520;-51
2022/08/17 07:16:05;;;;;;;7.60;6.10;;;23.70;56.50;;;;;;5044474;28;20470;-53
2022/08/17 07:18:33;;;;;;;6.50;5.47;;;23.90;69.00;;;;;;5043653;28;20493;-52
2022/08/17 07:21:08;;;;;;;6.40;4.90;;;24.20;92.30;;;;;;5042167;28;20454;-53
2022/08/17 07:23:47;;;;;;;5.13;4.50;;;24.40;97.70;;;;;;5048886;28;20486;-51
2022/08/17 07:26:13;;;;;;;4.63;4.10;;;24.50;99.90;;;;;;5042843;28;20484;-53
2022/08/17 07:28:43;;;;;;;7.60;4.33;;;24.50;99.90;;;;;;5050004;28;20458;-53
2022/08/17 07:31:12;;;;;;;4.23;3.83;;;24.60;99.90;;;;;;5046857;28;20462;-53
2022/08/17 07:33:39;;;;;;;7.10;4.23;;;24.70;99.90;;;;;;5055754;28;20958;-52
2022/08/17 07:36:23;;;;;;;4.27;3.93;;;24.80;99.90;;;;;;5049301;28;20958;-52
2022/08/17 07:38:57;;;;;;;6.83;4.00;;;24.90;99.90;;;;;;5045869;28;20453;-53
2022/08/17 07:41:24;;;;;;;5.33;4.07;;;25.00;99.90;;;;;;5055197;28;20532;-54
2022/08/17 07:43:51;;;;;;;4.80;4.40;;;25.10;99.90;;;;;;5046974;28;20913;-52
2022/08/17 07:49:34;;;;;;;4.53;4.13;;;25.30;99.90;;;;;;5047523;28;20576;-53
2022/08/17 07:52:04;;;;;;;4.83;4.43;;;25.40;99.90;;;;;;5004608;28;20458;-52
2022/08/17 07:54:35;;;;;;;6.13;4.03;;;25.50;99.90;;;;;;5049129;28;20486;-53
2022/08/17 07:57:23;;;;;;;4.47;4.10;;;25.50;99.90;;;;;;5051781;28;21450;-52
2022/08/17 08:00:14;;;;;;;8.63;4.50;;;25.60;99.90;;;;;;5049245;28;20472;-52
2022/08/17 08:02:44;;;;;;;3.90;3.50;;;25.70;99.90;;;;;;5041338;28;20536;-53
2022/08/17 08:05:17;;;;;;;4.90;4.50;;;25.80;99.90;;;;;;5048027;28;20505;-53
2022/08/17 08:07:53;;;;;;;4.57;4.07;;;25.80;99.90;;;;;;5051894;28;20510;-53
2022/08/17 08:10:31;;;;;;;5.83;5.23;;;25.90;99.90;;;;;;5057204;28;20455;-53
2022/08/17 08:13:09;;;;;;;11.20;4.27;;;26.00;99.90;;;;;;5050662;28;20539;-52
2022/08/17 08:15:39;;;;;;;5.87;4.30;;;26.10;99.90;;;;;;5046195;28;20948;-52
2022/08/17 08:18:20;;;;;;;4.87;4.10;;;26.20;99.90;;;;;;5060091;28;20514;-53
2022/08/17 08:20:51;;;;;;;4.50;4.10;;;26.40;99.90;;;;;;5051684;28;20851;-52
2022/08/17 08:23:29;;;;;;;4.93;4.57;;;26.50;99.90;;;;;;5050514;28;21299;-52
2022/08/17 08:26:09;;;;;;;4.63;4.20;;;26.60;99.90;;;;;;5047345;28;20457;-52
2022/08/17 08:28:46;;;;;;;4.77;4.30;;;26.60;99.90;;;;;;5048734;28;20519;-51
2022/08/17 08:31:24;;;;;;;4.93;4.53;;;26.70;1.40;;;;;;5056883;28;20832;-51
2022/08/17 08:34:04;;;;;;;5.10;4.20;;;26.70;99.90;;;;;;5060207;28;20524;-51
2022/08/17 08:36:43;;;;;;;5.50;4.37;;;26.80;99.90;;;;;;5043147;28;20551;-52
2022/08/17 08:39:17;;;;;;;4.30;4.00;;;26.90;99.90;;;;;;5039880;28;20560;-52
2022/08/17 08:41:54;;;;;;;5.10;4.30;;;27.00;99.90;;;;;;5039986;28;20498;-52
2022/08/17 08:44:34;;;;;;;4.03;3.83;;;27.10;99.90;;;;;;5047042;28;20457;-52
2022/08/17 08:47:09;;;;;;;7.20;4.37;;;27.20;99.90;;;;;;5038277;28;20464;-52
2022/08/17 08:50:12;;;;;;;5.03;4.57;;;27.30;99.90;;;;;;5029108;28;20983;-52
2022/08/17 08:53:06;;;;;;;3.90;3.60;;;27.40;99.90;;;;;;5030351;28;21033;-52
2022/08/17 08:55:49;;;;;;;4.10;3.77;;;27.50;99.90;;;;;;5038742;28;20458;-53
2022/08/17 08:58:24;;;;;;;3.70;3.47;;;27.60;99.90;;;;;;5038672;28;20451;-53
2022/08/17 09:00:56;;;;;;;4.47;4.07;;;27.70;99.90;;;;;;5041823;28;20465;-51
2022/08/17 09:04:02;;;;;;;9.27;3.93;;;27.90;99.90;;;;;;5038871;28;20494;-52
2022/08/17 09:06:43;;;;;;;6.17;4.13;;;28.00;99.90;;;;;;5039863;28;20477;-52
2022/08/17 09:09:21;;;;;;;7.83;3.87;;;28.10;99.90;;;;;;5052276;28;20990;-52
2022/08/17 09:11:57;;;;;;;5.33;4.63;;;28.30;99.90;;;;;;5051503;28;20832;-52
2022/08/17 09:14:30;;;;;;;4.10;3.73;;;28.40;99.90;;;;;;5040062;28;20457;-52
2022/08/17 09:17:04;;;;;;;3.20;3.00;;;28.60;99.90;;;;;;5045079;28;20464;-52
2022/08/17 09:19:36;;;;;;;3.23;3.03;;;28.70;99.90;;;;;;5045611;28;20468;-52
2022/08/17 09:22:10;;;;;;;3.33;3.03;;;29.00;99.90;;;;;;5049651;28;20489;-52
2022/08/17 09:24:42;;;;;;;4.23;3.90;;;29.40;99.90;;;;;;5034471;28;20888;-51
2022/08/17 09:27:14;;;;;;;3.57;3.37;;;29.50;99.90;;;;;;5048478;28;20797;-51
2022/08/17 09:29:48;;;;;;;3.57;3.30;;;29.60;99.90;;;;;;5050829;28;20515;-52
2022/08/17 09:32:19;;;;;;;6.60;3.97;;;29.60;99.90;;;;;;5044395;28;20466;-52
2022/08/17 09:34:52;;;;;;;8.77;3.97;;;29.50;99.90;;;;;;5048642;28;20462;-53
2022/08/17 09:37:25;;;;;;;11.30;3.83;;;29.50;99.90;;;;;;5050681;28;20481;-51
2022/08/17 09:40:01;;;;;;;4.60;4.20;;;29.30;99.90;;;;;;5052988;28;20492;-52
2022/08/17 09:42:34;;;;;;;3.83;2.90;;;29.40;99.90;;;;;;5048199;28;20511;-51
2022/08/17 09:45:16;;;;;;;3.53;3.23;;;29.30;99.90;;;;;;5044189;28;20462;-52
2022/08/17 09:47:48;;;;;;;3.70;3.40;;;29.40;99.90;;;;;;5052254;28;20464;-51
2022/08/17 09:50:22;;;;;;;4.83;3.80;;;29.30;99.90;;;;;;5052049;28;20515;-52
2022/08/17 09:52:54;;;;;;;4.27;3.13;;;29.20;99.90;;;;;;5048038;28;20478;-52
2022/08/17 09:55:23;;;;;;;5.70;3.77;;;29.10;99.90;;;;;;5044606;28;20454;-52
2022/08/17 09:58:00;;;;;;;8.93;3.17;;;29.10;99.90;;;;;;5035299;28;20466;-51
2022/08/17 10:00:35;;;;;;;3.57;3.27;;;29.10;99.90;;;;;;5042876;28;20489;-52
2022/08/17 10:05:45;;;;;;;4.93;3.40;;;29.30;99.90;;;;;;5018345;28;20474;-53
2022/08/17 10:08:24;;;;;;;5.73;3.40;;;29.40;99.90;;;;;;5034507;28;20534;-53
2022/08/17 10:10:59;;;;;;;3.77;3.53;;;29.40;99.90;;;;;;5033813;28;20561;-53
2022/08/17 10:13:33;;;;;;;3.70;3.50;;;29.40;99.90;;;;;;5027377;28;20543;-52
2022/08/17 10:16:14;;;;;;;7.03;3.50;;;29.30;99.90;;;;;;5024662;28;20558;-53
2022/08/17 10:18:51;;;;;;;3.43;3.20;;;29.30;99.90;;;;;;5026020;28;20466;-54
2022/08/17 10:26:55;;;;;;;6.97;4.10;;;29.60;99.90;;;;;;5030188;28;20546;-52
2022/08/17 10:29:28;;;;;;;4.83;4.17;;;29.70;99.90;;;;;;5020602;28;20451;-54
2022/08/17 10:32:02;;;;;;;6.20;3.70;;;29.80;99.90;;;;;;5020769;28;20518;-52
2022/08/17 10:34:49;;;;;;;3.47;3.27;;;29.90;99.90;;;;;;5016938;28;21000;-53
2022/08/17 10:37:34;;;;;;;11.23;3.57;;;29.90;99.90;;;;;;5027996;28;20466;-53
2022/08/17 10:40:18;;;;;;;3.50;3.20;;;30.00;99.90;;;;;;5030229;28;20567;-52
2022/08/17 10:42:56;;;;;;;4.23;3.83;;;30.10;99.90;;;;;;5029485;28;20500;-54
2022/08/17 10:45:29;;;;;;;5.80;3.13;;;30.30;99.90;;;;;;5032236;28;20470;-52
2022/08/17 10:48:00;;;;;;;3.37;3.00;;;30.50;99.90;;;;;;5023750;28;20462;-54
2022/08/17 10:50:46;;;;;;;3.57;3.27;;;30.60;99.90;;;;;;5020569;28;21016;-54
2022/08/17 10:53:54;;;;;;;3.73;3.43;;;30.70;99.90;;;;;;5019770;28;20467;-52
2022/08/17 10:56:23;;;;;;;5.67;3.63;;;30.60;99.90;;;;;;5017930;28;21033;-53
2022/08/17 10:58:53;;;;;;;6.10;3.80;;;30.50;99.90;;;;;;5017379;28;20475;-54
2022/08/17 11:01:42;;;;;;;3.60;3.40;;;30.20;99.90;;;;;;5027636;28;20460;-53
2022/08/17 11:04:26;;;;;;;7.73;3.53;;;29.90;99.90;;;;;;5029815;28;20985;-53
2022/08/17 11:07:07;;;;;;;4.17;3.87;;;29.60;99.90;;;;;;5033302;28;20511;-52
2022/08/17 11:10:01;;;;;;;3.97;3.60;;;29.50;99.90;;;;;;5033180;28;20467;-48
2022/08/17 11:12:44;;;;;;;3.70;3.40;;;29.30;99.90;;;;;;5026695;28;20449;-48
2022/08/17 11:15:25;;;;;;;3.93;3.70;;;29.20;99.90;;;;;;5026521;28;20540;-49
2022/08/17 11:18:20;;;;;;;4.03;3.73;;;29.00;99.90;;;;;;5024387;28;20466;-48
2022/08/17 11:21:19;;;;;;;4.20;3.90;;;28.90;99.90;;;;;;5021258;28;20467;-48
2022/08/17 11:24:01;;;;;;;4.30;3.80;;;28.80;99.90;;;;;;5022825;28;21020;-49
2022/08/17 11:26:31;;;;;;;8.07;3.73;;;28.90;99.90;;;;;;5021809;28;20466;-49
2022/08/17 11:29:02;;;;;;;6.00;3.67;;;28.90;99.90;;;;;;5011851;28;20517;-50
2022/08/17 11:31:35;;;;;;;4.30;3.90;;;28.90;99.90;;;;;;5023696;28;20459;-49
2022/08/17 11:34:05;;;;;;;3.90;3.70;;;28.80;99.90;;;;;;5033662;28;20487;-48
2022/08/17 11:36:48;;;;;;;3.73;3.53;;;28.80;99.90;;;;;;5041469;28;20495;-49
2022/08/17 11:39:32;;;;;;;3.73;3.50;;;28.80;99.90;;;;;;5021665;28;20473;-49
2022/08/17 11:42:05;;;;;;;4.27;4.03;;;28.60;99.90;;;;;;5020930;28;20517;-49
2022/08/17 11:44:46;;;;;;;4.60;3.67;;;28.60;99.90;;;;;;5024666;28;20489;-48
2022/08/17 11:53:55;;;;;;;3.40;3.10;;;28.70;99.90;;;;;;5020171;28;20534;-49
2022/08/17 11:56:37;;;;;;;3.30;3.00;;;29.20;99.90;;;;;;5018212;28;20467;-49
2022/08/17 11:59:44;;;;;;;3.90;3.70;;;29.20;99.90;;;;;;5028006;28;21009;-48
2022/08/17 12:02:34;;;;;;;3.80;3.50;;;29.40;99.90;;;;;;5020798;28;20463;-48
2022/08/17 12:05:12;;;;;;;4.50;3.20;;;29.50;99.90;;;;;;5022345;28;20573;-49
2022/08/17 12:07:42;;;;;;;2.87;2.77;;;29.40;99.90;;;;;;5027477;28;20549;-53
2022/08/17 12:10:11;;;;;;;2.87;2.63;;;29.30;99.90;;;;;;5025657;28;20458;-54
2022/08/17 12:12:42;;;;;;;3.20;2.97;;;29.20;99.90;;;;;;5023894;28;20464;-54
2022/08/17 12:15:17;;;;;;;2.90;2.70;;;29.10;99.90;;;;;;5033503;28;20474;-54
2022/08/17 12:17:52;;;;;;;2.87;2.67;;;29.00;99.90;;;;;;5024043;28;20490;-54
2022/08/17 12:20:22;;;;;;;6.33;3.17;;;29.00;99.90;;;;;;5026805;28;20477;-54
2022/08/17 12:22:57;;;;;;;12.87;3.33;;;29.10;99.90;;;;;;5034444;28;20566;-54
2022/08/17 12:25:32;;;;;;;2.80;2.70;;;29.40;99.90;;;;;;5018572;28;20920;-54
2022/08/17 12:28:00;;;;;;;2.80;2.60;;;29.50;99.90;;;;;;5023945;28;20493;-54
2022/08/17 12:30:28;;;;;;;6.00;3.43;;;29.70;99.90;;;;;;5028725;28;20463;-55
2022/08/17 12:32:55;;;;;;;3.00;2.90;;;29.90;99.90;;;;;;5027027;28;20602;-53
2022/08/17 12:35:28;;;;;;;3.17;2.87;;;29.90;99.90;;;;;;5029053;28;20488;-55
2022/08/17 12:37:57;;;;;;;3.70;2.87;;;29.90;99.90;;;;;;5039796;28;20513;-55
2022/08/17 12:40:27;;;;;;;3.27;2.60;;;30.00;99.90;;;;;;5027384;28;20464;-55
2022/08/17 12:42:56;;;;;;;3.07;2.87;;;30.00;99.90;;;;;;5029653;28;20554;-55
2022/08/17 12:45:31;;;;;;;5.13;2.63;;;30.00;99.90;;;;;;5022846;28;20482;-55
2022/08/17 12:48:06;;;;;;;3.10;3.00;;;29.90;99.90;;;;;;5021352;28;20462;-55
2022/08/17 12:50:34;;;;;;;2.77;2.67;;;29.90;99.90;;;;;;5036051;28;20459;-55
2022/08/17 12:53:01;;;;;;;3.10;3.00;;;29.80;99.90;;;;;;5031773;28;20864;-55
2022/08/17 12:55:28;;;;;;;3.23;2.70;;;29.80;99.90;;;;;;5028168;28;20530;-55
2022/08/17 12:57:58;;;;;;;3.80;2.97;;;29.80;99.90;;;;;;5036290;28;20862;-55
2022/08/17 13:00:29;;;;;;;2.63;2.53;;;29.80;99.90;;;;;;5018298;28;20469;-54
2022/08/17 13:03:00;;;;;;;3.30;3.10;;;29.80;99.90;;;;;;5024915;28;20459;-53
2022/08/17 13:05:29;;;;;;;4.20;3.47;;;29.80;99.90;;;;;;5030549;28;20486;-53
2022/08/17 13:07:58;;;;;;;5.33;3.10;;;30.10;99.90;;;;;;5033629;28;20517;-54
2022/08/17 13:10:27;;;;;;;3.20;3.00;;;30.40;99.90;;;;;;5026836;28;20466;-54
2022/08/17 13:12:54;;;;;;;5.10;2.63;;;30.50;99.90;;;;;;5037879;28;20525;-54
2022/08/17 13:15:28;;;;;;;3.50;3.23;;;30.60;99.90;;;;;;5031590;28;20477;-54
2022/08/17 13:18:05;;;;;;;3.90;3.60;;;30.60;99.90;;;;;;5020112;28;20471;-53
2022/08/17 13:20:32;;;;;;;7.57;3.97;;;30.50;99.90;;;;;;5016839;28;20446;-49
2022/08/17 13:23:04;;;;;;;4.97;4.47;;;30.40;99.90;;;;;;5036798;28;20534;-49
2022/08/17 13:25:31;;;;;;;4.50;4.20;;;30.40;99.90;;;;;;5033464;28;20454;-49
2022/08/17 13:27:58;;;;;;;3.90;3.57;;;30.30;99.90;;;;;;5023965;28;20462;-50
2022/08/17 13:30:31;;;;;;;3.73;3.53;;;30.20;99.90;;;;;;5030442;28;20462;-50
2022/08/17 13:32:59;;;;;;;4.07;3.60;;;30.10;99.90;;;;;;5028048;28;20545;-49
2022/08/17 13:35:43;;;;;;;4.63;3.80;;;30.10;99.90;;;;;;5037675;28;20483;-49
2022/08/17 13:38:12;;;;;;;13.50;3.80;;;30.10;99.90;;;;;;5024362;28;20466;-49
2022/08/17 13:40:48;;;;;;;4.83;3.60;;;30.00;99.90;;;;;;5027459;28;20520;-49